Decoded Metar for CYGW (KUUJJUARARAPIK in QC, CANADA) (IATA:YGW) | Meteo·Mobile Aviation Weather
aviador You're here:

CYGW Decoded Metar

KUUJJUARARAPIK in QC, CANADA
Report Time2019-02-20 20:28:00
UTC Time2019-02-20 20:33:44
Flight Rules mvfr MVFR
Wind320° at 02 kt
W.Decomp.*RWY 03: 1.2 kt HW 1.6 kt LCW
W.Rank320° ranks 20
Current wind is below 320° avg. (9.1)
Visibility9999 m
Phenomena:N/A
Clouds:Broken 023 Hf
Expected CloudBase > 1,200 ft AGL from Temp-Dew spread
Ceiling2,300 ft
Temp-16°C (ISA -31)
Dew Point-19°C (78% RH)
AAT-20.3°C
QNH1020 hPa
Density Alt-4,108 ft
Elevation39 ft
Report Wrong Elevation
Raw Report
SPECI CYGW 202028Z AUTO 32002KT 9SM BKN023 M16/M19 A3011 RMK SLP199=

Extra information for CYGW:More info

Metar Taf Metar & Taf Last 4 Metars F.Rules Stats Wind Profile Meteogram Temp Stats Airport Information Weather charts Add Link Nearby VenuesMetar ALERT Operation Metar Decoded Social comments